Flight Track Log - Related Links

Times and Time Zones

All times are in EST time to prevent confusion due to time zone crossing. See the LYM752 flight status page for this flight to view local times or setup timezone preferences in your user account.

Time Position Orientation Groundspeed Altitude Reporting Facility
EST Latitude Longitude Course Direction KTS MPH feet Rate Location/Type
Thu 09:22:51 AM 39.8167 -104.6333 78° East 129 148 6,500  Level Denver TRACON
Thu 09:23:45 AM 39.7833 -104.6167 159° South 144 166 7,200 722 Climbing Denver TRACON
Thu 09:24:39 AM 39.7500 -104.5833 142° Southeast 151 174 7,800 789 Climbing Denver TRACON
Thu 09:25:39 AM 39.7333 -104.5500 123° Southeast 171 197 8,700 840 Climbing Denver TRACON
Thu 09:26:19 AM 39.7522 -104.5117 57° Northeast 143 165 9,200 832 Climbing Denver Center
Thu 09:27:20 AM 39.7822 -104.4842 35° Northeast 131 151 10,100 836 Climbing Denver Center
Thu 09:28:00 AM 39.9185 -104.3266 78° East  Level FlightAware Approximate
Thu 09:28:21 AM 39.8108 -104.4547 38° Northeast 131 151 10,900  Level Denver Center
Thu 09:29:22 AM 39.8419 -104.4189 41° Northeast 146 168 10,900  Level Denver Center
Thu 09:30:23 AM 39.8789 -104.3786 40° Northeast 159 183 10,900  Level Denver Center
Thu 09:31:24 AM 39.8889 -104.3197 78° East 181 208 10,900  Level Denver Center
Thu 09:32:25 AM 39.8778 -104.2497 102° East 197 227 10,900 49 Level Denver Center
Thu 09:33:26 AM 39.8669 -104.1803 101° East 197 227 11,000  Climbing Denver Center
Thu 09:34:27 AM 39.8667 -104.1106 90° East 193 222 10,900 -98 Descending Denver Center
Thu 09:35:28 AM 39.8956 -104.0569 55° Northeast 167 192 10,800  Descending Denver Center
Thu 09:36:29 AM 39.9200 -104.0033 59° Northeast 171 197 10,900 49 Climbing Denver Center
Thu 09:37:30 AM 39.9428 -103.9489 61° Northeast 171 197 10,900  Level Denver Center
Thu 09:38:31 AM 39.9681 -103.8958 58° Northeast 171 197 10,900  Level Denver Center
Thu 09:39:33 AM 39.9939 -103.8397 59° Northeast 168 193 10,900  Level Denver Center
Thu 09:40:34 AM 40.0122 -103.7814 68° East 173 199 10,900  Level Denver Center
Thu 09:41:35 AM 40.0289 -103.7331 66° East 173 199 10,900  Level Denver Center
Thu 09:42:36 AM 40.0467 -103.6597 72° East 171 197 10,900  Level Denver Center
Thu 09:43:37 AM 40.0611 -103.5958 74° East 177 204 10,900 -49 Level Denver Center
Thu 09:44:38 AM 40.0761 -103.5322 73° East 181 208 10,800  Descending Denver Center
Thu 09:45:40 AM 40.0883 -103.4661 76° East 185 213 10,900 49 Climbing Denver Center
Thu 09:46:41 AM 40.1025 -103.4036 73° East 182 209 10,900 49 Level Denver Center
Thu 09:47:42 AM 40.1197 -103.3383 71° East 186 214 11,000  Climbing Denver Center
Thu 09:48:43 AM 40.1342 -103.2719 74° East 189 217 10,900  Descending Denver Center
Thu 09:49:44 AM 40.1447 -103.2031 79° East 191 220 11,000 49 Climbing Denver Center
Thu 09:50:46 AM 40.1542 -103.1356 80° East 190 219 11,000 -49 Level Denver Center
Thu 09:51:47 AM 40.1528 -103.0617 91° East 197 227 10,900 49 Descending Denver Center
Thu 09:52:48 AM 40.1569 -102.9756 86° East 199 229 11,100 49 Climbing Denver Center
Thu 09:53:49 AM 40.1619 -102.9047 85° East 198 228 11,000 -98 Descending Denver Center
Thu 09:54:51 AM 40.1650 -102.8364 87° East 192 221 10,900 -49 Descending Denver Center
Thu 09:55:52 AM 40.1639 -102.7639 91° East 195 224 10,900 49 Level Denver Center
Thu 09:56:53 AM 40.1664 -102.6928 87° East 196 226 11,000 44 Climbing Denver Center
Thu 09:58:07 AM 40.1633 -102.6172 93° East 194 223 11,000  Level Denver Center
Thu 09:59:08 AM 40.1661 -102.5375 87° East 197 227 11,000  Level Denver Center
Thu 10:00:09 AM 40.1717 -102.4583 85° East 197 227 11,000 -49 Level Denver Center
Thu 10:01:11 AM 40.1767 -102.3911 84° East 196 226 10,900 -49 Descending Denver Center
Thu 10:02:12 AM 40.1817 -102.3136 85° East 193 222 10,900 49 Level Denver Center
Thu 10:03:14 AM 40.1828 -102.2433 89° East 196 226 11,000  Climbing Denver Center
Thu 10:04:15 AM 40.1836 -102.1739 89° East 198 228 10,900  Descending Denver Center
Thu 10:05:16 AM 40.1839 -102.0928 90° East 200 230 11,000  Climbing Denver Center
Thu 10:06:18 AM 40.1872 -102.0244 86° East 198 228 10,900  Descending Denver Center
Thu 10:07:19 AM 40.1867 -101.9681 91° East 197 227 11,000 49 Climbing Denver Center
Thu 10:08:21 AM 40.1892 -101.8764 88° East 197 227 11,000 -146 Level Denver Center
Thu 10:09:22 AM 40.1908 -101.7969 88° East 196 226 10,700 -341 Descending Denver Center
Thu 10:10:24 AM 40.1931 -101.7247 88° East 201 231 10,300 -439 Descending Denver Center
Thu 10:11:25 AM 40.1958 -101.6503 87° East 208 239 9,800 -585 Descending Denver Center
Thu 10:12:27 AM 40.1972 -101.5614 89° East 214 246 9,100 -634 Descending Denver Center
Thu 10:13:28 AM 40.1975 -101.4847 90° East 218 251 8,500 -689 Descending Denver Center
Thu 10:14:29 AM 40.2025 -101.3992 86° East 216 249 7,700 -634 Descending Denver Center
Thu 10:15:31 AM 40.2044 -101.3275 88° East 212 244 7,200 -532 Descending Denver Center
Thu 10:16:33 AM 40.2053 -101.2564 89° East 207 238 6,600 -581 Descending Denver Center

Login

Don't have an account? Register now (free) for customized features, flight alerts, and more!